Terminal Aerodrome Forecast
Issued by NWS

Home | Current Version | Previous Version | Text Only | Print | Product List | Glossary On
Versions: 1 2 3 4 5 6 7 8 9 10 11 12 13 14 15 16 17 18 19 20 21 22 23 24 25
000
FTUS44 KMAF 311300 AAA
TAFHOB
TAF AMD
KHOB 311308Z 3113/0112 02011KT P6SM SCT020 BKN060
      TEMPO 3113/3115 BKN025
     FM311600 03010KT P6SM SCT050 BKN130=

USA.gov is the U.S. government's official web portal to all federal, state and local government web resources and services.